Huvudsida
METAR-TAF:

METAR-TAF

Flygplatser :

Najran, Saudiarabien

latitud: 17-37N, longitud: 044-25E, höjd: 1212 m

Aktuellt väderrapport

Denna rapport gjordes för 45 minuter sedan, klockan 05:00 UTC
Vind 4 kt från väst/nordväst
Temperatur 36°C
Fuktighet 13%
Tryck 1012 hPa
Sikt 10 km eller mer
Få moln på en höjd av 3000 ft

METAR: OENG 230500Z 30004KT 9999 FEW030 36/03 Q1012 NOSIG

Tid: 08:45 (05:45 UTC)

Väderprognos

Denna rapport gjordes för 6 timmar och 45 minuter sedan, klockan 23:00 UTC
Prognos gäller från 23 kl. 00 UTC till 24 kl. 06 UTC
Vind 16 kt från nord/nordväst
Sikt: 7000 m
Spridda moln på en höjd av 3000 ft
Spridda moln på en höjd av 9000 ft
Sannolikhet 30% :
Temporärt
från 23 kl. 00 UTC till 23 kl. 06 UTC
Sikt: 3000 m
högt damm drev
Blir
från 23 kl. 18 UTC till 23 kl. 20 UTC
Vind 14 kt från väst/nordväst

TAF: OENG 222300Z 2300/2406 34016KT 7000 SCT030 SCT090 PROB30 TEMPO 2300/2306 3000 BLDU BECMG 2318/2320 30014KT

Aktuella väderrapporter och prognoser från 4000 flygplatser (METAR- och TAF-rapporter).

De tillgängliga stationerna syns som gula och röda prickar på kartan.

För musen över prickarna för att se namnen på stationerna.

Klicka sedan för att få väderrapporter och prognoser.

För att ändra kartan: Klicka på de gröna knapparna med ett svart kors på för att zooma in; den gröna knappen med ett streck på för att zooma ut; eller på de gröna pilarna för angränsande kartor.


METAR-TAF: